Estación Meteorológica Peña el Pijo (Robertgarden) [ 09/23/17 05:50:48 CEST ]

Fecha Hora Presion(HPa) Temp (°C) Humedad % Rocio (°C) Viento ( m/s) Direccion Lluvia 1Hora(mm) Lluvia 24H(mm) LLuvia Total(mm)
2017-Jul-25 01:01:48 1012.400 17.8 49 6.9         1437.96
2017-Jul-25 02:01:35 1012.000 17.1 51 6.9         1437.96
2017-Jul-25 03:01:20 1011.800 16.4 53 6.8         1437.96
2017-Jul-25 04:01:21 1011.300 15.6 57 7.1         1437.96
2017-Jul-25 05:02:01 1011.100 14.2 63 7.2         1437.96
2017-Jul-25 06:01:49 1010.700 13.4 65 6.9         1437.96
2017-Jul-25 07:01:44 1010.900 12.6 68 6.8         1437.96
2017-Jul-25 08:01:35 1011.100 13.8 71 8.6         1437.96
2017-Jul-25 09:01:36 1011.300 20.6 55 11.2         1437.96
2017-Jul-25 10:01:52 1011.000 25.4 49 13.9         1437.96
2017-Jul-25 11:01:43 1010.600 29.4 42 15.3         1437.96
2017-Jul-25 12:01:27 1010.300 32.1 35 14.6         1437.96
2017-Jul-25 13:01:42 1009.900 33.6 33 15.0         1437.96
2017-Jul-25 14:01:23 1009.100 32.4 31 13.1         1437.96
2017-Jul-25 15:01:19 1008.600 34.3 25 11.2         1437.96
2017-Jul-25 16:01:41 1008.000 37.2 19 9.6         1437.96
2017-Jul-25 17:01:29 1007.600 37.4 26 14.5         1437.96
2017-Jul-25 18:01:31 1007.700 32.9 33 14.4         1437.96
2017-Jul-25 19:01:56 1008.100 28.6 46 15.8         1437.96
2017-Jul-25 20:01:54 1008.200 26.9 51 15.9         1437.96
2017-Jul-25 21:01:49 1008.500 25.9 55 16.1         1437.96
2017-Jul-25 22:01:57 1009.100 24.0 61 16.0         1437.96
2017-Jul-25 23:01:39 1009.600 22.8 66 16.1         1437.96

Temperatura Máxima:37°    Temperatura Mínima:12°
Presión Máxima:1012.400 Hpa    Presión Mínima:1007.600 Hpa


Volver